createdAt,value
2024-02-08T00:00:01.207Z,15.21
2024-02-08T00:02:32.173Z,15.20
2024-02-08T00:05:03.658Z,15.18
2024-02-08T00:07:35.144Z,15.16
2024-02-08T00:10:10.294Z,15.17
2024-02-08T00:12:42.982Z,15.18
2024-02-08T00:15:17.291Z,15.18
2024-02-08T00:17:49.252Z,15.17
2024-02-08T00:20:20.879Z,15.16
2024-02-08T00:22:53.783Z,15.16
2024-02-08T00:25:25.660Z,15.15
2024-02-08T00:27:57.162Z,15.15
2024-02-08T00:30:28.459Z,15.14
2024-02-08T00:32:59.779Z,15.13
2024-02-08T00:35:30.945Z,15.12
2024-02-08T00:38:02.425Z,15.10
2024-02-08T00:40:33.486Z,15.10
2024-02-08T00:43:07.967Z,15.11
2024-02-08T00:45:39.404Z,15.10
2024-02-08T00:48:11.302Z,15.10
2024-02-08T00:50:42.293Z,15.10
2024-02-08T00:53:13.344Z,15.09
2024-02-08T00:55:45.382Z,15.09
2024-02-08T00:58:17.368Z,15.08
2024-02-08T01:00:49.135Z,15.08
2024-02-08T01:03:20.323Z,15.07
2024-02-08T01:05:52.719Z,15.07
2024-02-08T01:08:24.168Z,15.07
2024-02-08T01:10:55.249Z,15.07
2024-02-08T01:13:28.397Z,15.07
2024-02-08T01:15:59.557Z,15.07
2024-02-08T01:18:31.711Z,15.06
2024-02-08T01:21:02.757Z,15.06
2024-02-08T01:23:34.294Z,15.05
2024-02-08T01:26:05.706Z,15.05
2024-02-08T01:28:37.157Z,15.04
2024-02-08T01:31:08.397Z,15.03
2024-02-08T01:33:39.825Z,15.02
2024-02-08T01:36:11.789Z,15.02
2024-02-08T01:38:43.452Z,15.02
2024-02-08T01:41:15.109Z,15.02
2024-02-08T01:43:46.110Z,15.02
2024-02-08T01:46:17.862Z,15.02
2024-02-08T01:48:50.528Z,15.01
2024-02-08T01:51:23.834Z,15.01
2024-02-08T01:53:55.651Z,15.00
2024-02-08T01:56:27.136Z,15.00
2024-02-08T01:58:59.472Z,14.99
2024-02-08T02:01:31.103Z,14.98
2024-02-08T02:04:02.627Z,14.97
2024-02-08T02:06:33.828Z,14.96
2024-02-08T02:09:05.283Z,14.95
2024-02-08T02:11:42.821Z,14.95
2024-02-08T02:14:16.632Z,14.96
2024-02-08T02:16:52.469Z,14.97
2024-02-08T02:19:25.001Z,14.96
2024-02-08T02:21:55.938Z,14.96
2024-02-08T02:24:27.165Z,14.97
2024-02-08T02:26:59.199Z,14.96
2024-02-08T02:29:30.379Z,14.97
2024-02-08T02:32:02.208Z,14.96
2024-02-08T02:34:34.794Z,14.96
2024-02-08T02:37:06.568Z,14.96
2024-02-08T02:39:38.368Z,14.96
2024-02-08T02:42:10.414Z,14.95
2024-02-08T02:44:41.756Z,14.95
2024-02-08T02:47:12.774Z,14.94
2024-02-08T02:49:44.125Z,14.93
2024-02-08T02:52:15.251Z,14.93
2024-02-08T02:54:46.279Z,14.91
2024-02-08T02:57:17.800Z,14.91
2024-02-08T02:59:48.892Z,14.90
2024-02-08T03:02:29.774Z,14.89
2024-02-08T03:05:01.348Z,14.88
2024-02-08T03:07:32.996Z,14.88
2024-02-08T03:10:04.687Z,14.86
2024-02-08T03:12:35.624Z,14.86
2024-02-08T03:15:10.310Z,14.86
2024-02-08T03:17:41.291Z,14.85
2024-02-08T03:20:18.523Z,14.84
2024-02-08T03:22:50.721Z,14.83
2024-02-08T03:25:23.093Z,14.82
2024-02-08T03:27:54.986Z,14.81
2024-02-08T03:30:32.774Z,14.81
2024-02-08T03:33:13.451Z,14.79
2024-02-08T03:35:47.777Z,14.77
2024-02-08T03:38:20.760Z,14.76
2024-02-08T03:40:51.952Z,14.75
2024-02-08T03:43:25.235Z,14.73
2024-02-08T03:45:57.549Z,14.72
2024-02-08T03:48:30.469Z,14.69
2024-02-08T03:51:02.576Z,14.66
2024-02-08T03:53:38.552Z,14.62
2024-02-08T03:56:10.563Z,14.59
2024-02-08T03:58:42.308Z,14.56
2024-02-08T04:01:15.088Z,14.53
2024-02-08T04:03:55.194Z,14.51
2024-02-08T04:06:38.795Z,14.48
2024-02-08T04:09:18.315Z,14.45
2024-02-08T04:12:03.587Z,14.43
2024-02-08T04:14:48.296Z,14.40
2024-02-08T04:17:33.149Z,14.38
2024-02-08T04:20:18.362Z,14.36
2024-02-08T04:23:03.370Z,14.34
2024-02-08T04:25:48.290Z,14.32
2024-02-08T04:28:33.428Z,14.29
2024-02-08T04:31:24.133Z,14.28
2024-02-08T04:34:12.248Z,14.26
2024-02-08T04:36:57.211Z,14.25
2024-02-08T04:39:48.031Z,14.26
2024-02-08T04:42:33.173Z,14.27
2024-02-08T04:45:18.424Z,14.27
2024-02-08T04:48:03.922Z,14.27
2024-02-08T04:50:49.358Z,14.25
2024-02-08T04:53:34.265Z,14.24
2024-02-08T04:56:09.962Z,14.24
2024-02-08T04:59:06.787Z,14.23
2024-02-08T05:01:39.854Z,14.22
2024-02-08T05:04:11.301Z,14.23
2024-02-08T05:06:45.421Z,14.23
2024-02-08T05:09:20.928Z,14.22
2024-02-08T05:11:53.505Z,14.21
2024-02-08T05:14:24.930Z,14.21
2024-02-08T05:16:57.148Z,14.22
2024-02-08T05:19:28.835Z,14.22
2024-02-08T05:22:01.595Z,14.22
2024-02-08T05:24:33.074Z,14.22
2024-02-08T05:27:04.417Z,14.22
2024-02-08T05:29:40.798Z,14.22
2024-02-08T05:32:12.531Z,14.21
2024-02-08T05:34:45.456Z,14.21
2024-02-08T05:37:16.685Z,14.21
2024-02-08T05:39:48.418Z,14.21
2024-02-08T05:42:22.820Z,14.18
2024-02-08T05:44:55.225Z,14.15
2024-02-08T05:47:27.789Z,14.13
2024-02-08T05:49:58.977Z,14.13
2024-02-08T05:52:34.468Z,14.11
2024-02-08T05:55:06.235Z,14.10
2024-02-08T05:57:37.233Z,14.09
2024-02-08T06:00:15.472Z,14.10
2024-02-08T06:02:47.666Z,14.09
2024-02-08T06:05:20.195Z,14.08
2024-02-08T06:07:58.269Z,14.07
2024-02-08T06:10:43.426Z,14.07
2024-02-08T06:13:18.764Z,14.06
2024-02-08T06:15:54.561Z,14.05
2024-02-08T06:18:32.296Z,14.14
2024-02-08T06:21:14.568Z,14.68
2024-02-08T06:23:46.808Z,15.15
2024-02-08T06:26:30.539Z,15.54
2024-02-08T06:29:07.091Z,15.89
2024-02-08T06:31:42.591Z,16.13
2024-02-08T06:34:30.011Z,16.28
2024-02-08T06:37:18.155Z,16.42
2024-02-08T06:39:58.293Z,16.52
2024-02-08T06:42:45.684Z,16.59
2024-02-08T06:45:36.911Z,16.66
2024-02-08T06:48:32.211Z,16.72
2024-02-08T06:51:17.434Z,16.77
2024-02-08T06:54:05.847Z,16.82
2024-02-08T06:56:51.046Z,16.85
2024-02-08T06:59:36.019Z,16.85
2024-02-08T07:02:21.317Z,16.82
2024-02-08T07:05:08.703Z,16.80
2024-02-08T07:07:55.911Z,16.79
2024-02-08T07:10:43.991Z,16.70
2024-02-08T07:13:29.558Z,16.66
2024-02-08T07:16:26.848Z,16.60
2024-02-08T07:19:12.061Z,16.51
2024-02-08T07:21:57.498Z,16.46
2024-02-08T07:24:42.945Z,16.50
2024-02-08T07:27:28.384Z,16.57
2024-02-08T07:30:13.530Z,16.64
2024-02-08T07:32:59.789Z,16.71
2024-02-08T07:35:44.872Z,16.77
2024-02-08T07:38:17.043Z,16.81
2024-02-08T07:40:48.439Z,16.88
2024-02-08T07:43:21.439Z,16.95
2024-02-08T07:45:56.829Z,17.00
2024-02-08T07:48:41.198Z,17.05
2024-02-08T07:51:17.024Z,17.11
2024-02-08T07:53:53.381Z,17.15
2024-02-08T07:56:38.780Z,17.22
2024-02-08T07:59:17.410Z,17.30
2024-02-08T08:01:52.451Z,17.39
2024-02-08T08:04:40.847Z,17.46
2024-02-08T08:07:13.857Z,17.54
2024-02-08T08:09:48.233Z,17.58
2024-02-08T08:12:23.637Z,17.52
2024-02-08T08:15:15.084Z,17.41
2024-02-08T08:18:01.773Z,17.28
2024-02-08T08:20:47.043Z,17.19
2024-02-08T08:23:28.328Z,17.12
2024-02-08T08:26:22.748Z,17.09
2024-02-08T08:29:03.894Z,17.08
2024-02-08T08:31:47.700Z,17.09
2024-02-08T08:34:32.946Z,17.12
2024-02-08T08:37:27.792Z,17.20
2024-02-08T08:40:18.875Z,17.32
2024-02-08T08:42:51.792Z,17.39
2024-02-08T08:45:23.817Z,17.45
2024-02-08T08:48:01.907Z,17.57
2024-02-08T08:50:33.258Z,17.71
2024-02-08T08:53:18.204Z,17.79
2024-02-08T08:55:51.786Z,17.92
2024-02-08T08:58:28.885Z,18.10
2024-02-08T09:01:13.304Z,18.31
2024-02-08T09:03:45.532Z,18.63
2024-02-08T09:06:18.265Z,18.89
2024-02-08T09:08:56.659Z,18.89
2024-02-08T09:11:29.130Z,18.85
2024-02-08T09:14:11.522Z,18.93
2024-02-08T09:16:53.752Z,19.41
2024-02-08T09:19:29.265Z,20.03
2024-02-08T09:22:01.896Z,20.56
2024-02-08T09:24:43.722Z,21.12
2024-02-08T09:27:18.309Z,21.33
2024-02-08T09:29:58.241Z,21.31
2024-02-08T09:32:43.485Z,21.25
2024-02-08T09:35:16.654Z,21.19
2024-02-08T09:37:48.652Z,21.20
2024-02-08T09:40:22.422Z,21.24
2024-02-08T09:42:59.110Z,21.33
2024-02-08T09:45:45.057Z,21.34
2024-02-08T09:48:27.273Z,21.19
2024-02-08T09:51:12.679Z,20.88
2024-02-08T09:53:53.040Z,20.62
2024-02-08T09:56:39.352Z,20.54
2024-02-08T09:59:20.028Z,20.48
2024-02-08T10:01:54.439Z,20.37
2024-02-08T10:04:32.435Z,20.23
2024-02-08T10:07:08.313Z,20.24
2024-02-08T10:09:42.293Z,20.37
2024-02-08T10:12:20.356Z,20.48
2024-02-08T10:15:01.700Z,20.56
2024-02-08T10:17:42.829Z,20.60
2024-02-08T10:20:34.635Z,20.57
2024-02-08T10:23:31.493Z,20.52
2024-02-08T10:26:17.485Z,20.57
2024-02-08T10:28:55.968Z,20.61
2024-02-08T10:31:27.590Z,20.58
2024-02-08T10:34:12.564Z,20.59
2024-02-08T10:36:46.764Z,20.67
2024-02-08T10:39:26.929Z,20.75
2024-02-08T10:42:01.463Z,20.74
2024-02-08T10:44:36.342Z,20.63
2024-02-08T10:47:09.244Z,20.51
2024-02-08T10:49:47.837Z,20.34
2024-02-08T10:52:23.049Z,20.15
2024-02-08T10:54:57.840Z,19.94
2024-02-08T10:58:04.683Z,19.79
2024-02-08T11:00:50.721Z,19.70
2024-02-08T11:03:35.240Z,19.70
2024-02-08T11:06:29.494Z,19.75
2024-02-08T11:09:19.882Z,19.85
2024-02-08T11:12:00.382Z,19.89
2024-02-08T11:14:42.644Z,19.91
2024-02-08T11:17:21.750Z,19.98
2024-02-08T11:19:58.474Z,20.02
2024-02-08T11:22:44.116Z,20.05
2024-02-08T11:25:34.865Z,20.09
2024-02-08T11:28:25.595Z,20.15
2024-02-08T11:30:58.717Z,20.22
2024-02-08T11:33:43.801Z,20.28
2024-02-08T11:36:18.040Z,20.30
2024-02-08T11:38:59.462Z,20.32
2024-02-08T11:41:34.043Z,20.31
2024-02-08T11:44:07.266Z,20.27
2024-02-08T11:46:46.570Z,20.20
2024-02-08T11:49:33.861Z,20.15
2024-02-08T11:52:12.408Z,20.07
2024-02-08T11:54:44.514Z,20.00
2024-02-08T11:57:21.964Z,19.98
2024-02-08T11:59:56.510Z,19.93
2024-02-08T12:02:28.827Z,19.92
2024-02-08T12:05:01.202Z,19.92
2024-02-08T12:07:32.775Z,19.90
2024-02-08T12:10:10.911Z,19.87
2024-02-08T12:12:42.789Z,19.88
2024-02-08T12:15:16.974Z,19.86
2024-02-08T12:17:53.105Z,19.87
2024-02-08T12:20:25.491Z,19.86
2024-02-08T12:22:59.712Z,19.83
2024-02-08T12:25:30.875Z,19.78
2024-02-08T12:28:06.184Z,19.68
2024-02-08T12:30:41.916Z,19.55
2024-02-08T12:33:14.271Z,19.43
2024-02-08T12:35:46.237Z,19.32
2024-02-08T12:38:19.426Z,19.26
2024-02-08T12:40:51.444Z,19.24
2024-02-08T12:43:23.130Z,19.25
2024-02-08T12:46:00.442Z,19.24
2024-02-08T12:48:31.692Z,19.17
2024-02-08T12:51:04.958Z,19.08
2024-02-08T12:53:36.438Z,19.01
2024-02-08T12:56:14.793Z,18.93
2024-02-08T12:58:48.337Z,18.88
2024-02-08T13:01:20.346Z,18.86
2024-02-08T13:03:56.706Z,18.85
2024-02-08T13:06:28.411Z,18.84
2024-02-08T13:09:27.514Z,18.82
2024-02-08T13:12:19.743Z,18.81
2024-02-08T13:15:07.080Z,18.79
2024-02-08T13:17:39.380Z,18.85
2024-02-08T13:20:14.432Z,18.91
2024-02-08T13:22:47.433Z,18.99
2024-02-08T13:25:21.940Z,19.08
2024-02-08T13:27:53.379Z,19.16
2024-02-08T13:30:25.008Z,19.31
2024-02-08T13:32:57.357Z,19.44
2024-02-08T13:35:30.514Z,19.56
2024-02-08T13:38:02.966Z,19.66
2024-02-08T13:40:34.426Z,19.70
2024-02-08T13:43:06.964Z,19.71
2024-02-08T13:45:38.314Z,19.74
2024-02-08T13:48:14.184Z,19.75
2024-02-08T13:50:48.148Z,19.76
2024-02-08T13:53:19.504Z,19.68
2024-02-08T13:55:55.645Z,19.62
2024-02-08T13:58:30.112Z,19.61
2024-02-08T14:01:02.673Z,19.62
2024-02-08T14:03:36.234Z,19.60
2024-02-08T14:06:11.391Z,19.53
2024-02-08T14:08:48.243Z,19.36
2024-02-08T14:11:21.622Z,19.17
2024-02-08T14:13:52.980Z,18.99
2024-02-08T14:16:24.061Z,18.81
2024-02-08T14:18:56.159Z,18.73
2024-02-08T14:21:29.282Z,18.65
2024-02-08T14:24:03.592Z,18.56
2024-02-08T14:26:41.791Z,18.43
2024-02-08T14:29:14.398Z,18.31
2024-02-08T14:31:46.462Z,18.22
2024-02-08T14:34:17.419Z,18.12
2024-02-08T14:36:51.442Z,18.05
2024-02-08T14:39:33.872Z,17.98
2024-02-08T14:42:12.249Z,17.94
2024-02-08T14:44:45.424Z,17.90
2024-02-08T14:47:23.537Z,17.89
2024-02-08T14:50:01.036Z,17.88
2024-02-08T14:52:38.083Z,17.86
2024-02-08T14:55:21.685Z,17.83
2024-02-08T14:58:00.465Z,17.81
2024-02-08T15:00:46.257Z,17.79
2024-02-08T15:03:29.421Z,17.74
2024-02-08T15:06:06.954Z,17.71
2024-02-08T15:08:56.345Z,17.67
2024-02-08T15:11:58.827Z,17.63
2024-02-08T15:14:37.368Z,17.59
2024-02-08T15:17:11.905Z,17.55
2024-02-08T15:19:48.242Z,17.51
2024-02-08T15:22:40.978Z,17.47
2024-02-08T15:25:17.944Z,17.43
2024-02-08T15:27:55.218Z,17.38
2024-02-08T15:30:37.918Z,17.34
2024-02-08T15:33:30.338Z,17.29
2024-02-08T15:36:11.760Z,17.30
2024-02-08T15:39:02.216Z,17.33
2024-02-08T15:41:52.181Z,17.26
2024-02-08T15:44:36.736Z,17.18
2024-02-08T15:47:13.839Z,17.10
2024-02-08T15:49:46.008Z,17.01
2024-02-08T15:52:17.886Z,16.95
2024-02-08T15:54:56.633Z,16.91
2024-02-08T15:57:31.135Z,16.86
2024-02-08T16:00:11.696Z,16.78
2024-02-08T16:02:44.693Z,16.72
2024-02-08T16:05:16.592Z,16.67
2024-02-08T16:07:58.523Z,16.62
2024-02-08T16:10:33.284Z,16.58
2024-02-08T16:13:07.492Z,16.56
2024-02-08T16:15:57.712Z,16.56
2024-02-08T16:18:31.402Z,16.52
2024-02-08T16:21:06.911Z,16.51
2024-02-08T16:23:48.012Z,16.50
2024-02-08T16:26:20.956Z,16.43
2024-02-08T16:28:52.221Z,16.39
2024-02-08T16:31:26.625Z,16.36
2024-02-08T16:34:09.465Z,16.32
2024-02-08T16:36:49.890Z,16.26
2024-02-08T16:39:31.530Z,16.17
2024-02-08T16:42:02.962Z,16.11
2024-02-08T16:44:43.049Z,16.06
2024-02-08T16:47:29.171Z,16.03
2024-02-08T16:50:08.617Z,15.97
2024-02-08T16:52:47.684Z,15.94
2024-02-08T16:55:24.146Z,15.92
2024-02-08T16:58:07.965Z,15.92
2024-02-08T17:00:41.152Z,15.96
2024-02-08T17:03:32.483Z,16.00
2024-02-08T17:06:13.194Z,15.97
2024-02-08T17:09:02.559Z,15.91
2024-02-08T17:11:36.887Z,15.82
2024-02-08T17:14:09.854Z,15.76
2024-02-08T17:16:47.396Z,15.72
2024-02-08T17:19:30.944Z,15.71
2024-02-08T17:22:20.067Z,15.73
2024-02-08T17:25:05.161Z,15.79
2024-02-08T17:27:57.893Z,15.85
2024-02-08T17:30:53.352Z,15.90
2024-02-08T17:33:25.037Z,15.94
2024-02-08T17:35:57.158Z,15.97
2024-02-08T17:38:36.547Z,15.98
2024-02-08T17:41:15.512Z,15.99
2024-02-08T17:43:57.011Z,16.02
2024-02-08T17:46:31.909Z,16.05
2024-02-08T17:49:05.759Z,16.05
2024-02-08T17:51:43.596Z,16.05
2024-02-08T17:54:23.118Z,16.06
2024-02-08T17:57:03.002Z,16.07
2024-02-08T17:59:34.771Z,16.06
2024-02-08T18:02:07.585Z,16.06
2024-02-08T18:04:43.296Z,16.05
2024-02-08T18:07:14.658Z,16.04
2024-02-08T18:09:55.182Z,16.04
2024-02-08T18:12:36.052Z,16.05
2024-02-08T18:15:14.504Z,16.04
2024-02-08T18:17:46.959Z,16.02
2024-02-08T18:20:25.007Z,16.02
2024-02-08T18:22:58.521Z,16.02
2024-02-08T18:25:33.730Z,16.01
2024-02-08T18:28:13.561Z,16.01
2024-02-08T18:30:46.862Z,16.00
2024-02-08T18:33:20.536Z,15.99
2024-02-08T18:35:55.000Z,16.00
2024-02-08T18:38:28.045Z,16.01
2024-02-08T18:41:05.597Z,16.04
2024-02-08T18:43:37.650Z,16.07
2024-02-08T18:46:17.190Z,16.07
2024-02-08T18:48:57.607Z,16.07
2024-02-08T18:51:32.125Z,16.06
2024-02-08T18:54:04.313Z,16.05
2024-02-08T18:56:42.603Z,16.03
2024-02-08T18:59:24.525Z,16.01
2024-02-08T19:02:05.813Z,15.98
2024-02-08T19:04:39.148Z,15.96
2024-02-08T19:07:12.982Z,15.95
2024-02-08T19:09:47.671Z,15.97
2024-02-08T19:12:19.455Z,15.96
2024-02-08T19:14:53.862Z,15.97
2024-02-08T19:17:26.935Z,15.97
2024-02-08T19:20:02.278Z,15.96
2024-02-08T19:22:38.663Z,15.95
2024-02-08T19:25:12.622Z,15.93
2024-02-08T19:27:46.717Z,15.90
2024-02-08T19:30:25.144Z,15.90
2024-02-08T19:33:02.564Z,15.90
2024-02-08T19:35:35.536Z,15.90
2024-02-08T19:38:06.920Z,15.89
2024-02-08T19:40:44.963Z,15.88
2024-02-08T19:43:20.520Z,15.86
2024-02-08T19:45:56.223Z,15.84
2024-02-08T19:48:30.847Z,15.83
2024-02-08T19:51:13.903Z,15.80
2024-02-08T19:53:48.304Z,15.77
2024-02-08T19:56:20.212Z,15.75
2024-02-08T19:58:53.871Z,15.75
2024-02-08T20:01:32.707Z,15.74
2024-02-08T20:04:15.285Z,15.73
2024-02-08T20:06:51.517Z,15.74
2024-02-08T20:09:26.490Z,15.75
2024-02-08T20:12:02.158Z,15.74
2024-02-08T20:14:35.615Z,15.73
2024-02-08T20:17:10.945Z,15.73
2024-02-08T20:19:46.571Z,15.73
2024-02-08T20:22:18.722Z,15.71
2024-02-08T20:24:50.324Z,15.69
2024-02-08T20:27:21.540Z,15.68
2024-02-08T20:29:53.715Z,15.65
2024-02-08T20:32:30.085Z,15.65
2024-02-08T20:35:02.319Z,15.64
2024-02-08T20:37:35.794Z,15.64
2024-02-08T20:40:12.979Z,15.64
2024-02-08T20:42:48.863Z,15.61
2024-02-08T20:45:23.222Z,15.59
2024-02-08T20:47:54.991Z,15.58
2024-02-08T20:50:27.470Z,15.56
2024-02-08T20:52:59.301Z,15.54
2024-02-08T20:55:36.798Z,15.51
2024-02-08T20:58:13.466Z,15.47
2024-02-08T21:00:46.073Z,15.45
2024-02-08T21:03:18.507Z,15.44
2024-02-08T21:05:51.394Z,15.44
2024-02-08T21:08:25.096Z,15.42
2024-02-08T21:11:00.106Z,15.42
2024-02-08T21:13:33.345Z,15.41
2024-02-08T21:16:05.924Z,15.40
2024-02-08T21:18:39.878Z,15.40
2024-02-08T21:21:14.905Z,15.42
2024-02-08T21:23:46.754Z,15.44
2024-02-08T21:26:22.733Z,15.46
2024-02-08T21:28:55.485Z,15.47
2024-02-08T21:31:28.221Z,15.46
2024-02-08T21:34:00.597Z,15.46
2024-02-08T21:36:31.949Z,15.46
2024-02-08T21:39:19.603Z,15.47
2024-02-08T21:41:51.048Z,15.49
2024-02-08T21:44:22.641Z,15.49
2024-02-08T21:46:54.057Z,15.47
2024-02-08T21:49:27.514Z,15.42
2024-02-08T21:51:58.785Z,15.30
2024-02-08T21:54:30.059Z,15.20
2024-02-08T21:57:05.221Z,15.11
2024-02-08T21:59:38.114Z,15.00
2024-02-08T22:02:10.344Z,14.95
2024-02-08T22:04:41.721Z,14.92
2024-02-08T22:07:15.091Z,14.89
2024-02-08T22:09:47.156Z,14.89
2024-02-08T22:12:18.298Z,14.88
2024-02-08T22:14:50.400Z,14.94
2024-02-08T22:17:21.512Z,14.98
2024-02-08T22:19:53.144Z,15.03
2024-02-08T22:22:24.614Z,15.10
2024-02-08T22:24:58.665Z,15.14
2024-02-08T22:27:29.989Z,15.17
2024-02-08T22:30:01.302Z,15.19
2024-02-08T22:32:36.886Z,15.21
2024-02-08T22:35:09.098Z,15.25
2024-02-08T22:37:43.734Z,15.27
2024-02-08T22:40:15.893Z,15.27
2024-02-08T22:42:47.708Z,15.27
2024-02-08T22:45:22.443Z,15.22
2024-02-08T22:47:54.621Z,15.20
2024-02-08T22:50:26.458Z,15.16
2024-02-08T22:52:57.879Z,15.14
2024-02-08T22:55:29.963Z,15.12
2024-02-08T22:58:02.238Z,15.08
2024-02-08T23:00:49.395Z,15.05
2024-02-08T23:03:25.589Z,15.03
2024-02-08T23:05:58.669Z,15.00
2024-02-08T23:08:30.108Z,14.96
2024-02-08T23:11:01.070Z,14.94
2024-02-08T23:13:33.717Z,14.92
2024-02-08T23:16:09.357Z,14.89
2024-02-08T23:18:41.075Z,14.86
2024-02-08T23:21:12.120Z,14.82
2024-02-08T23:23:43.195Z,14.80
2024-02-08T23:26:14.444Z,14.83
2024-02-08T23:28:45.642Z,14.87
2024-02-08T23:31:18.820Z,14.92
2024-02-08T23:33:50.590Z,14.92
2024-02-08T23:36:21.825Z,14.88
2024-02-08T23:38:53.051Z,14.85
2024-02-08T23:41:27.176Z,14.82
2024-02-08T23:43:59.077Z,14.79
2024-02-08T23:46:30.261Z,14.76
2024-02-08T23:49:02.869Z,14.75
2024-02-08T23:51:34.134Z,14.76
2024-02-08T23:54:06.557Z,14.79
2024-02-08T23:56:40.817Z,14.82
2024-02-08T23:59:12.875Z,14.81
